Time;durP1;ratioP1;P1;durP2;ratioP2;P2;SDS_P1;SDS_P2;PMS_P1;PMS_P2;Temp;Humidity;BMP_temperature;BMP_pressure;BME280_temperature;BME280_humidity;BME280_pressure;Samples;Min_cycle;Max_cycle;Signal;HPM_P1;HPM_P2
2021/11/06 00:02:34;;;;;;;;;53.50;44.25;;;;;12.29;88.95;102033.22;5034343;28;11610;-71
2021/11/06 00:05:29;;;;;;;;;66.00;54.25;;;;;12.12;89.39;102031.06;5035286;28;11527;-71
2021/11/06 00:08:25;;;;;;;;;53.50;45.75;;;;;12.35;89.29;102031.97;5044529;28;11659;-71
2021/11/06 00:11:21;;;;;;;;;59.00;48.50;;;;;12.26;88.96;102023.53;5034720;28;11539;-70
2021/11/06 00:14:16;;;;;;;;;52.75;43.75;;;;;12.31;89.35;102017.88;5014531;28;11561;-71
2021/11/06 00:17:12;;;;;;;;;41.75;38.50;;;;;12.38;88.97;102023.84;5027071;28;12267;-71
2021/11/06 00:20:09;;;;;;;;;36.50;35.25;;;;;12.29;90.41;102031.25;5033975;28;11716;-71
2021/11/06 00:23:05;;;;;;;;;53.50;43.75;;;;;12.44;90.33;102041.19;5033900;28;12306;-71
2021/11/06 00:26:01;;;;;;;;;44.00;39.25;;;;;12.41;91.23;102050.13;5057225;28;11644;-71
2021/11/06 00:28:57;;;;;;;;;57.75;47.50;;;;;12.42;91.54;102043.44;5033778;28;11622;-71
2021/11/06 00:31:53;;;;;;;;;50.50;43.75;;;;;12.48;91.51;102047.75;5033677;28;11513;-71
2021/11/06 00:34:48;;;;;;;;;62.50;50.25;;;;;12.47;90.73;102052.50;5032263;28;11514;-71
2021/11/06 00:37:45;;;;;;;;;53.50;44.25;;;;;12.37;89.89;102049.94;5034578;28;11616;-71
2021/11/06 00:40:41;;;;;;;;;55.00;45.75;;;;;12.22;89.27;102055.81;5033670;28;11601;-71
2021/11/06 00:43:36;;;;;;;;;46.25;41.50;;;;;12.27;89.10;102047.41;5033606;28;11567;-72
2021/11/06 00:46:32;;;;;;;;;52.75;45.50;;;;;12.12;89.15;102045.75;5032057;28;11528;-71
2021/11/06 00:49:28;;;;;;;;;44.25;40.75;;;;;12.14;88.78;102039.91;5034255;28;11213;-71
2021/11/06 00:52:23;;;;;;;;;56.00;46.75;;;;;12.02;88.93;102043.16;5033341;28;11201;-71
2021/11/06 00:55:19;;;;;;;;;49.25;42.75;;;;;11.98;89.08;102042.16;5033370;28;11537;-71
2021/11/06 00:58:15;;;;;;;;;56.25;47.50;;;;;12.06;89.78;102032.28;5033284;28;11518;-71
2021/11/06 01:01:10;;;;;;;;;59.75;50.25;;;;;12.00;90.39;102030.75;5033395;28;11510;-71
2021/11/06 01:04:06;;;;;;;;;60.00;51.00;;;;;11.96;90.91;102024.97;5031553;28;11577;-71
2021/11/06 01:07:01;;;;;;;;;62.00;49.25;;;;;12.10;90.67;102023.03;5033573;28;11608;-71
2021/11/06 01:09:57;;;;;;;;;52.00;45.00;;;;;12.13;90.85;102027.97;5032979;28;11564;-71
2021/11/06 01:12:52;;;;;;;;;57.25;47.00;;;;;12.08;91.37;102033.63;5034490;28;11519;-71
2021/11/06 01:15:48;;;;;;;;;58.50;49.00;;;;;12.11;91.58;102032.16;5032836;28;11533;-71
2021/11/06 01:18:44;;;;;;;;;60.25;50.00;;;;;12.24;91.19;102028.56;5033779;28;11545;-71
2021/11/06 01:21:40;;;;;;;;;56.25;47.75;;;;;12.17;91.66;102030.94;5032690;28;11706;-70
2021/11/06 01:24:35;;;;;;;;;53.00;43.25;;;;;12.21;92.43;102040.31;5032542;28;11614;-71
2021/11/06 01:27:31;;;;;;;;;65.25;52.75;;;;;12.35;92.24;102032.78;5032013;28;12305;-71
2021/11/06 01:30:27;;;;;;;;;60.50;48.00;;;;;12.44;92.48;102028.16;5032793;28;11586;-71
2021/11/06 01:33:22;;;;;;;;;53.75;46.50;;;;;12.57;92.32;102031.19;5034070;28;11583;-71
2021/11/06 01:36:19;;;;;;;;;59.50;48.50;;;;;12.54;92.79;102032.66;5034092;28;11550;-71
2021/11/06 01:39:14;;;;;;;;;57.25;49.25;;;;;12.74;92.59;102039.69;5030886;28;11519;-71
2021/11/06 01:42:10;;;;;;;;;57.25;48.00;;;;;12.68;92.56;102036.22;5032485;28;11551;-71
2021/11/06 01:45:07;;;;;;;;;57.75;47.75;;;;;12.74;92.40;102023.03;5031765;28;11528;-71
2021/11/06 01:48:02;;;;;;;;;59.50;46.00;;;;;12.82;92.18;102030.63;5032608;28;11534;-71
2021/11/06 01:51:00;;;;;;;;;59.50;49.00;;;;;12.78;92.17;102033.19;5032408;28;11538;-71
2021/11/06 01:53:56;;;;;;;;;57.25;45.75;;;;;12.88;91.87;102034.09;5033118;28;11544;-71
2021/11/06 01:56:54;;;;;;;;;57.00;45.75;;;;;12.87;91.56;102044.38;5032345;28;11512;-71
2021/11/06 01:59:52;;;;;;;;;50.50;43.00;;;;;12.86;91.50;102039.94;5033171;28;11602;-70
2021/11/06 02:02:48;;;;;;;;;57.75;45.50;;;;;12.91;91.17;102039.03;5032447;28;11536;-71
2021/11/06 02:05:43;;;;;;;;;57.75;48.00;;;;;12.84;91.41;102042.22;5033187;28;11533;-70
2021/11/06 02:08:39;;;;;;;;;55.00;46.25;;;;;12.80;91.45;102036.50;5032417;28;11583;-71
2021/11/06 02:11:37;;;;;;;;;63.50;50.00;;;;;12.76;91.50;102035.47;5032291;28;11535;-70
2021/11/06 02:14:33;;;;;;;;;58.75;48.75;;;;;12.74;91.32;102045.25;5032281;28;11618;-71
2021/11/06 02:17:28;;;;;;;;;60.00;50.50;;;;;12.68;91.47;102043.72;5032319;28;11511;-70
2021/11/06 02:20:24;;;;;;;;;54.25;45.00;;;;;12.84;90.65;102041.41;5031947;28;11592;-71
2021/11/06 02:23:19;;;;;;;;;57.25;48.50;;;;;12.76;90.95;102032.69;5031829;28;11531;-71
2021/11/06 02:26:18;;;;;;;;;54.25;45.75;;;;;12.85;90.30;102030.00;5030751;28;11526;-70
2021/11/06 02:29:13;;;;;;;;;60.25;48.75;;;;;12.80;90.22;102030.09;5044341;28;11539;-71
2021/11/06 02:32:09;;;;;;;;;58.00;47.50;;;;;12.79;90.44;102020.13;5034367;28;11536;-70
2021/11/06 02:35:07;;;;;;;;;56.00;47.00;;;;;12.78;90.25;102024.03;5036156;28;11532;-71
2021/11/06 02:38:02;;;;;;;;;57.00;47.00;;;;;12.75;90.89;102027.47;5036051;28;11667;-71
2021/11/06 02:40:58;;;;;;;;;59.50;48.00;;;;;12.79;90.71;102022.91;5034397;28;12169;-70
2021/11/06 02:43:54;;;;;;;;;52.00;44.25;;;;;12.80;90.59;102019.00;5036383;28;11548;-70
2021/11/06 02:46:49;;;;;;;;;53.50;45.00;;;;;12.86;90.64;102022.47;5035752;28;11721;-71
2021/11/06 02:49:45;;;;;;;;;60.00;49.75;;;;;12.93;90.55;102017.31;5037202;28;11622;-70
2021/11/06 02:52:41;;;;;;;;;54.00;44.75;;;;;12.91;90.91;102016.81;5026741;28;11629;-70
2021/11/06 02:55:36;;;;;;;;;55.50;46.75;;;;;12.86;90.92;102014.97;5022979;28;11574;-71
2021/11/06 02:58:32;;;;;;;;;56.75;47.50;;;;;12.94;90.58;102011.44;5035137;28;11151;-71
2021/11/06 03:01:28;;;;;;;;;60.00;47.25;;;;;12.93;90.73;102003.44;5015568;28;11537;-70
2021/11/06 03:04:23;;;;;;;;;56.50;45.75;;;;;12.98;90.49;102008.88;5039011;28;11609;-71
2021/11/06 03:07:19;;;;;;;;;54.25;42.50;;;;;12.94;90.74;102010.63;5021751;28;11549;-71
2021/11/06 03:10:15;;;;;;;;;60.00;50.50;;;;;12.92;90.87;101999.81;5035286;28;11999;-71
2021/11/06 03:13:11;;;;;;;;;56.00;46.75;;;;;12.93;90.67;102001.47;5035705;28;11579;-71
2021/11/06 03:16:08;;;;;;;;;53.25;46.00;;;;;12.97;90.90;101996.94;5036743;28;11541;-70
2021/11/06 03:19:04;;;;;;;;;56.50;45.00;;;;;12.96;91.34;102000.03;5034973;28;11191;-71
2021/11/06 03:21:59;;;;;;;;;62.50;50.75;;;;;12.96;91.72;101994.47;5034610;28;11547;-71
2021/11/06 03:24:55;;;;;;;;;58.00;47.75;;;;;12.94;91.58;101980.88;5035904;28;11619;-71
2021/11/06 03:27:51;;;;;;;;;57.50;46.25;;;;;13.03;91.47;101987.34;5035125;28;11552;-71
2021/11/06 03:30:47;;;;;;;;;57.25;45.00;;;;;13.13;91.27;101991.81;5033254;28;11574;-71
2021/11/06 03:33:43;;;;;;;;;57.50;46.75;;;;;13.15;91.17;101983.16;5035708;28;11539;-71
2021/11/06 03:36:38;;;;;;;;;54.25;46.00;;;;;13.17;90.99;101975.31;5033383;28;11549;-71
2021/11/06 03:39:36;;;;;;;;;54.25;45.00;;;;;13.16;90.90;101968.94;5034767;28;11599;-70
2021/11/06 03:42:31;;;;;;;;;54.50;47.25;;;;;13.16;91.23;101973.69;5034381;28;11528;-71
2021/11/06 03:45:27;;;;;;;;;53.00;45.50;;;;;13.22;90.91;101964.94;5033086;28;11344;-71
2021/11/06 03:48:23;;;;;;;;;53.50;45.75;;;;;13.17;90.99;101964.22;5033043;28;11550;-70
2021/11/06 03:51:20;;;;;;;;;55.50;46.75;;;;;13.14;91.62;101956.53;5034254;28;12255;-70
2021/11/06 03:54:16;;;;;;;;;53.50;45.00;;;;;13.19;91.28;101960.00;5034499;28;11516;-70
2021/11/06 03:57:11;;;;;;;;;52.75;45.00;;;;;13.24;91.51;101965.44;5034679;28;11177;-70
2021/11/06 04:00:12;;;;;;;;;57.50;49.25;;;;;13.20;91.85;101963.63;5032751;28;11221;-71
2021/11/06 04:03:08;;;;;;;;;56.00;47.50;;;;;13.28;91.72;101966.44;5032866;28;11560;-72
2021/11/06 04:06:04;;;;;;;;;57.50;49.00;;;;;13.34;91.24;101972.66;5035011;28;11321;-72
2021/11/06 04:09:00;;;;;;;;;57.25;49.00;;;;;13.25;91.92;101972.63;5034640;28;11522;-72
2021/11/06 04:11:55;;;;;;;;;55.00;45.75;;;;;13.27;91.89;101975.13;5034340;28;11525;-72
2021/11/06 04:14:51;;;;;;;;;59.75;49.50;;;;;13.28;91.95;101976.75;5034171;28;11141;-72
2021/11/06 04:17:47;;;;;;;;;50.00;41.75;;;;;13.40;91.08;101981.69;5034021;28;12156;-71
2021/11/06 04:20:42;;;;;;;;;55.75;47.00;;;;;13.34;91.69;101978.22;5033912;28;11236;-72
2021/11/06 04:23:38;;;;;;;;;55.00;47.50;;;;;13.28;91.78;101982.31;5033746;28;11525;-71
2021/11/06 04:26:34;;;;;;;;;56.25;48.25;;;;;13.29;91.64;101995.88;5031268;28;11514;-71
2021/11/06 04:29:29;;;;;;;;;50.50;43.75;;;;;13.28;91.48;101994.25;5029420;28;11528;-71
2021/11/06 04:32:25;;;;;;;;;55.50;46.75;;;;;13.27;91.47;101984.25;5029805;28;11504;-71
2021/11/06 04:35:21;;;;;;;;;56.25;47.25;;;;;13.27;91.55;101981.50;5032674;28;11307;-71
2021/11/06 04:38:17;;;;;;;;;61.25;50.00;;;;;13.31;91.61;101992.78;5033956;28;12086;-71
2021/11/06 04:41:13;;;;;;;;;56.25;48.25;;;;;13.23;91.89;101997.13;5030615;28;12337;-71
2021/11/06 04:44:08;;;;;;;;;53.00;44.50;;;;;13.34;91.32;102003.22;5030851;28;11555;-71
2021/11/06 04:47:04;;;;;;;;;56.25;46.25;;;;;13.26;91.97;101999.28;5030718;28;11516;-71
2021/11/06 04:49:59;;;;;;;;;55.75;46.75;;;;;13.18;92.85;101994.44;5031048;28;11169;-71
2021/11/06 04:52:55;;;;;;;;;57.00;46.75;;;;;13.25;92.36;102007.94;5030858;28;11250;-72
2021/11/06 04:55:51;;;;;;;;;64.25;49.75;;;;;13.17;93.63;102006.69;5041671;28;12268;-72
2021/11/06 04:58:46;;;;;;;;;41.00;37.75;;;;;13.15;93.38;102008.16;5027833;28;12263;-71
2021/11/06 05:01:42;;;;;;;;;60.75;50.75;;;;;13.13;94.00;101999.34;5031356;28;12258;-71
2021/11/06 05:04:38;;;;;;;;;52.75;45.00;;;;;13.13;94.07;101989.03;5030902;28;11550;-71
2021/11/06 05:07:33;;;;;;;;;62.75;51.25;;;;;13.06;94.51;102010.88;5030195;28;11507;-71
2021/11/06 05:10:29;;;;;;;;;54.50;46.25;;;;;13.12;94.45;102001.28;5029397;28;11635;-71
2021/11/06 05:13:24;;;;;;;;;58.50;48.00;;;;;13.15;94.12;102008.16;5031678;28;11524;-71
2021/11/06 05:16:20;;;;;;;;;53.50;45.00;;;;;13.22;93.92;102019.69;5029084;28;11362;-72
2021/11/06 05:19:16;;;;;;;;;56.00;48.00;;;;;13.18;93.89;102015.84;5029937;28;11578;-71
2021/11/06 05:22:12;;;;;;;;;56.50;46.75;;;;;13.25;93.98;102030.16;5031059;28;11505;-71
2021/11/06 05:25:26;;;;;;;;;65.50;50.00;;;;;13.23;93.91;102040.78;5030480;28;11560;-71
2021/11/06 05:28:22;;;;;;;;;57.50;47.50;;;;;13.25;93.59;102036.53;5027708;28;11547;-71
2021/11/06 05:31:18;;;;;;;;;61.00;48.25;;;;;13.21;93.81;102040.28;5030264;28;11532;-70
2021/11/06 05:34:13;;;;;;;;;46.75;40.50;;;;;13.22;93.67;102039.13;5028085;28;11382;-71
2021/11/06 05:37:09;;;;;;;;;52.75;45.50;;;;;13.18;93.50;102040.84;5027445;28;11371;-71
2021/11/06 05:40:06;;;;;;;;;56.25;47.25;;;;;13.12;93.81;102039.34;5033410;28;11321;-71
2021/11/06 05:43:02;;;;;;;;;51.75;43.75;;;;;13.11;93.83;102038.50;5032526;28;11497;-71
2021/11/06 05:45:58;;;;;;;;;50.50;43.75;;;;;13.14;93.43;102034.31;5013588;28;11134;-72
2021/11/06 05:48:54;;;;;;;;;51.25;43.25;;;;;13.04;93.61;102029.81;5038699;28;11014;-72
2021/11/06 05:51:50;;;;;;;;;48.00;42.00;;;;;13.02;93.33;102030.13;5036395;28;11143;-72
2021/11/06 05:54:45;;;;;;;;;55.00;45.00;;;;;12.93;93.89;102023.69;5033831;28;11162;-71
2021/11/06 05:57:42;;;;;;;;;52.50;44.00;;;;;12.89;94.69;102032.97;5019190;28;11919;-71
2021/11/06 06:00:38;;;;;;;;;44.00;38.00;;;;;12.92;94.68;102032.34;5039776;28;11130;-72
2021/11/06 06:03:34;;;;;;;;;50.50;41.00;;;;;12.99;94.53;102025.22;5020276;28;11090;-72
2021/11/06 06:06:30;;;;;;;;;47.25;41.50;;;;;12.93;94.87;102047.84;5041100;28;11088;-72
2021/11/06 06:09:25;;;;;;;;;48.00;40.00;;;;;12.95;94.57;102053.91;5043101;28;11093;-73
2021/11/06 06:12:21;;;;;;;;;46.50;41.00;;;;;12.99;94.78;102052.16;5043615;28;11283;-70
2021/11/06 06:15:18;;;;;;;;;50.75;44.00;;;;;13.03;94.17;102051.22;5038277;28;10962;-70
2021/11/06 06:18:16;;;;;;;;;45.50;40.00;;;;;13.09;94.09;102040.78;5042223;28;11051;-72
2021/11/06 06:21:13;;;;;;;;;45.25;40.50;;;;;13.06;94.80;102055.31;5039917;28;11065;-71
2021/11/06 06:24:09;;;;;;;;;50.75;43.25;;;;;13.04;94.76;102052.88;5023385;28;11077;-70
2021/11/06 06:27:05;;;;;;;;;51.50;42.75;;;;;12.88;95.44;102067.41;5044641;28;11164;-70
2021/11/06 06:30:00;;;;;;;;;46.75;40.50;;;;;13.06;94.40;102075.59;5035391;28;11015;-70
2021/11/06 06:32:56;;;;;;;;;56.75;45.25;;;;;12.99;94.22;102068.81;5040729;28;10978;-71
2021/11/06 06:35:52;;;;;;;;;54.50;45.00;;;;;13.05;94.59;102073.13;5035638;28;11174;-71
2021/11/06 06:38:47;;;;;;;;;53.50;41.25;;;;;12.94;94.42;102078.06;5044857;28;11612;-72
2021/11/06 06:41:44;;;;;;;;;52.50;43.75;;;;;12.86;94.70;102076.06;5041363;28;11043;-71
2021/11/06 06:44:40;;;;;;;;;42.75;39.00;;;;;12.86;95.48;102080.78;5035429;28;10973;-71
2021/11/06 06:47:12;;;;;;;;;43.50;39.50;;;;;12.96;95.09;102086.13;5036487;28;10748;-71
2021/11/06 06:50:09;;;;;;;;;51.00;43.00;;;;;12.64;96.41;102112.91;5035579;28;10975;-71
2021/11/06 06:53:04;;;;;;;;;43.75;39.25;;;;;12.62;97.40;102112.41;5038788;28;10982;-72
2021/11/06 06:56:00;;;;;;;;;51.00;44.25;;;;;12.66;96.59;102120.94;5008670;28;11513;-71
2021/11/06 06:58:55;;;;;;;;;48.00;42.50;;;;;12.60;97.81;102117.44;5019682;28;11214;-71
2021/11/06 07:01:51;;;;;;;;;53.75;41.50;;;;;12.75;96.92;102110.75;5015356;28;11148;-71
2021/11/06 07:04:47;;;;;;;;;36.75;34.25;;;;;12.82;96.45;102108.38;5014964;28;11394;-71
2021/11/06 07:07:42;;;;;;;;;46.00;40.25;;;;;12.71;97.28;102102.19;5022771;28;11321;-71
2021/11/06 07:10:38;;;;;;;;;50.50;41.00;;;;;12.84;96.22;102108.88;5033884;28;11147;-72
2021/11/06 07:13:36;;;;;;;;;47.25;41.25;;;;;12.85;96.49;102109.69;5034492;28;11224;-71
2021/11/06 07:16:31;;;;;;;;;46.50;40.50;;;;;12.95;95.76;102115.81;5044557;28;11125;-72
2021/11/06 07:19:27;;;;;;;;;29.25;29.25;;;;;12.76;97.28;102115.16;5035654;28;11080;-72
2021/11/06 07:22:24;;;;;;;;;47.50;40.00;;;;;12.64;96.65;102121.22;5033508;28;10926;-71
2021/11/06 07:25:20;;;;;;;;;40.75;37.50;;;;;12.51;98.41;102125.69;5025761;28;11163;-71
2021/11/06 07:28:16;;;;;;;;;52.25;44.25;;;;;12.80;97.63;102127.25;5014682;28;10985;-71
2021/11/06 07:31:12;;;;;;;;;45.50;39.75;;;;;12.85;96.78;102127.16;5014433;28;11089;-72
2021/11/06 07:34:08;;;;;;;;;46.50;41.50;;;;;12.76;96.88;102135.41;5015279;28;11336;-72
2021/11/06 07:37:04;;;;;;;;;52.75;45.00;;;;;12.77;97.95;102127.91;5016941;28;11083;-72
2021/11/06 07:40:00;;;;;;;;;44.00;40.25;;;;;12.84;97.06;102133.84;5052806;28;11264;-71
2021/11/06 07:42:28;;;;;;;;;58.25;48.75;;;;;12.89;96.77;102128.19;5034761;28;11304;-71
2021/11/06 07:45:14;;;;;;;;;42.75;39.00;;;;;12.81;96.72;102120.59;5033217;28;12141;-71
2021/11/06 07:48:09;;;;;;;;;43.50;39.00;;;;;12.79;96.73;102120.06;5001366;28;11210;-70
2021/11/06 07:51:05;;;;;;;;;51.75;42.00;;;;;12.96;96.54;102117.50;5026039;28;10719;-71
2021/11/06 07:53:48;;;;;;;;;49.25;41.75;;;;;12.96;96.51;102111.13;5030520;28;11077;-72
2021/11/06 07:56:16;;;;;;;;;54.75;43.75;;;;;12.93;96.65;102104.22;5022197;28;11002;-70
2021/11/06 07:59:12;;;;;;;;;48.50;42.75;;;;;12.98;95.65;102104.09;5019665;28;11020;-71
2021/11/06 08:02:08;;;;;;;;;46.00;40.25;;;;;13.11;95.82;102096.03;5047007;28;11568;-72
2021/11/06 08:04:50;;;;;;;;;41.25;35.50;;;;;13.00;95.69;102093.50;5053005;28;11605;-71
2021/11/06 08:07:46;;;;;;;;;47.25;41.25;;;;;12.94;96.71;102094.75;5052779;28;10990;-70
2021/11/06 08:10:42;;;;;;;;;45.75;41.25;;;;;13.00;96.07;102101.81;5054437;28;11145;-70
2021/11/06 08:13:37;;;;;;;;;50.75;41.50;;;;;13.05;96.48;102104.50;5053809;28;11856;-70
2021/11/06 08:16:33;;;;;;;;;51.25;41.00;;;;;13.14;96.17;102109.31;5054003;28;11029;-70
2021/11/06 08:19:29;;;;;;;;;46.25;38.50;;;;;13.16;95.28;102109.81;5051111;28;11036;-70
2021/11/06 08:22:25;;;;;;;;;41.00;36.75;;;;;13.07;95.17;102105.00;5052835;28;11002;-70
2021/11/06 08:25:22;;;;;;;;;50.25;42.75;;;;;13.16;95.01;102107.03;5052492;28;10939;-70
2021/11/06 08:28:18;;;;;;;;;60.00;46.75;;;;;13.07;95.10;102104.19;5052145;28;10983;-70
2021/11/06 08:31:14;;;;;;;;;43.75;38.00;;;;;13.14;94.96;102109.31;5033234;28;12273;-70
2021/11/06 08:34:10;;;;;;;;;107.75;92.50;;;;;13.17;95.35;102119.78;5046899;28;11014;-72
2021/11/06 08:37:05;;;;;;;;;53.75;45.75;;;;;13.08;95.35;102114.97;5052839;28;11586;-70
2021/11/06 08:40:03;;;;;;;;;39.25;37.25;;;;;13.23;95.22;102119.38;5053696;28;11488;-70
2021/11/06 08:42:58;;;;;;;;;47.25;40.75;;;;;13.14;95.43;102120.41;5038390;28;10833;-71
2021/11/06 08:45:26;;;;;;;;;76.25;58.50;;;;;13.09;95.43;102111.06;5053394;28;11017;-71
2021/11/06 08:47:55;;;;;;;;;66.25;55.00;;;;;13.06;95.92;102114.47;5053155;28;11526;-70
2021/11/06 08:50:51;;;;;;;;;49.75;43.00;;;;;13.14;96.00;102103.75;5038356;28;11514;-71
2021/11/06 08:53:19;;;;;;;;;53.75;44.75;;;;;13.31;95.70;102101.13;5052906;28;12012;-70
2021/11/06 08:56:15;;;;;;;;;68.75;54.75;;;;;13.59;96.13;102094.31;5051301;28;11428;-68
2021/11/06 08:58:43;;;;;;;;;48.00;39.75;;;;;14.26;100.00;102098.06;5052317;28;11663;-68
2021/11/06 09:01:12;;;;;;;;;44.75;38.75;;;;;14.52;100.00;102099.00;5035526;28;11389;-68
2021/11/06 09:03:40;;;;;;;;;50.50;41.00;;;;;14.46;99.43;102094.72;5053475;28;10815;-69
2021/11/06 09:06:38;;;;;;;;;70.25;52.25;;;;;14.47;99.12;102090.81;5032429;28;10673;-68
2021/11/06 09:09:09;;;;;;;;;49.50;40.50;;;;;14.31;97.33;102082.06;5023368;28;11512;-69
2021/11/06 09:12:05;;;;;;;;;42.25;38.50;;;;;14.40;96.06;102076.50;5054001;28;10491;-69
2021/11/06 09:14:34;;;;;;;;;38.00;34.75;;;;;14.28;95.63;102077.13;5053283;28;10467;-68
2021/11/06 09:17:02;;;;;;;;;45.00;38.25;;;;;14.38;96.30;102076.00;5053307;28;10512;-69
2021/11/06 09:19:31;;;;;;;;;57.75;45.50;;;;;14.33;96.87;102079.75;5053290;28;10442;-69
2021/11/06 09:21:59;;;;;;;;;48.25;42.50;;;;;14.35;95.51;102076.69;5053136;28;11063;-69
2021/11/06 09:24:28;;;;;;;;;79.50;62.00;;;;;14.79;97.48;102083.97;5052917;28;10986;-69
2021/11/06 09:26:56;;;;;;;;;52.25;44.75;;;;;15.01;98.98;102075.47;5035439;28;11596;-69
2021/11/06 09:29:24;;;;;;;;;68.25;51.75;;;;;15.41;100.00;102078.09;5053313;28;10829;-69
2021/11/06 09:31:52;;;;;;;;;42.50;37.00;;;;;14.54;92.53;102068.06;5053294;28;11072;-70
2021/11/06 09:34:20;;;;;;;;;42.00;37.50;;;;;14.69;95.60;102073.16;5035491;28;10251;-69
2021/11/06 09:36:49;;;;;;;;;51.00;41.25;;;;;14.53;95.82;102072.00;5052938;28;10451;-68
2021/11/06 09:39:16;;;;;;;;;45.00;39.00;;;;;14.41;94.46;102070.59;5052420;28;10409;-68
2021/11/06 09:41:45;;;;;;;;;45.50;39.00;;;;;14.52;93.81;102062.81;5053047;28;10872;-69
2021/11/06 09:44:13;;;;;;;;;39.75;37.00;;;;;14.81;95.68;102056.66;5035444;28;10350;-69
2021/11/06 09:46:42;;;;;;;;;46.50;39.25;;;;;14.83;94.69;102047.97;5053151;28;10232;-69
2021/11/06 09:49:09;;;;;;;;;44.75;39.25;;;;;14.68;94.17;102054.81;5035213;28;10203;-68
2021/11/06 09:51:38;;;;;;;;;48.25;40.25;;;;;14.60;93.66;102066.78;5052846;28;10253;-71
2021/11/06 09:54:06;;;;;;;;;44.75;39.25;;;;;14.73;95.25;102063.03;5052835;28;10275;-69
2021/11/06 09:56:34;;;;;;;;;45.25;38.50;;;;;14.89;96.27;102080.91;5052993;28;10825;-69
2021/11/06 09:59:03;;;;;;;;;42.25;37.00;;;;;14.31;91.06;102078.44;5053039;28;10548;-69
2021/11/06 10:01:32;;;;;;;;;47.50;40.00;;;;;14.51;94.64;102075.09;5035380;28;10438;-69
2021/11/06 10:04:08;;;;;;;;;39.25;36.75;;;;;14.26;93.27;102089.72;5052939;28;10425;-69
2021/11/06 10:06:43;;;;;;;;;46.00;37.00;;;;;14.65;96.63;102083.34;5052146;28;10167;-69
2021/11/06 10:09:13;;;;;;;;;43.00;38.25;;;;;14.34;93.31;102078.63;5052686;28;10283;-69
2021/11/06 10:11:47;;;;;;;;;45.50;36.50;;;;;14.62;96.43;102081.19;5067867;28;10143;-68
2021/11/06 10:14:26;;;;;;;;;37.75;35.00;;;;;14.90;95.04;102065.00;5052824;28;10364;-69
2021/11/06 10:17:00;;;;;;;;;44.25;39.00;;;;;14.71;93.66;102082.00;5052398;28;10337;-69
2021/11/06 10:19:39;;;;;;;;;38.75;36.50;;;;;14.63;93.22;102082.81;5035647;28;10249;-70
2021/11/06 10:22:25;;;;;;;;;23.50;22.00;;;;;14.87;95.13;102072.03;5051700;28;10119;-69
2021/11/06 10:24:58;;;;;;;;;37.50;36.00;;;;;15.10;95.84;102075.47;5052146;28;10106;-69
2021/11/06 10:27:29;;;;;;;;;45.50;40.00;;;;;14.77;93.81;102068.75;5052717;28;10213;-69
2021/11/06 10:30:15;;;;;;;;;42.25;37.75;;;;;14.78;93.01;102067.59;5034708;28;10263;-69
2021/11/06 10:33:14;;;;;;;;;43.25;38.50;;;;;15.17;93.35;102063.84;5052741;28;10134;-70
2021/11/06 10:35:49;;;;;;;;;41.25;36.75;;;;;15.00;95.82;102067.47;5052375;28;10330;-70
2021/11/06 10:38:19;;;;;;;;;34.50;33.50;;;;;14.78;92.61;102074.00;5035211;28;10199;-70
2021/11/06 10:40:48;;;;;;;;;38.50;36.00;;;;;14.89;93.79;102068.94;5052577;28;10056;-70
2021/11/06 10:43:19;;;;;;;;;37.25;34.25;;;;;15.02;94.51;102074.31;5052364;28;10274;-70
2021/11/06 10:45:48;;;;;;;;;42.25;37.75;;;;;15.22;94.07;102072.88;5052339;28;10090;-70
2021/11/06 10:48:18;;;;;;;;;40.00;37.00;;;;;15.08;92.98;102063.84;5052349;28;10885;-70
2021/11/06 10:50:48;;;;;;;;;43.00;37.75;;;;;14.72;90.45;102065.00;5037222;28;10063;-70
2021/11/06 10:53:37;;;;;;;;;37.00;33.75;;;;;14.77;91.96;102052.88;5056018;28;10276;-70
2021/11/06 10:56:14;;;;;;;;;55.50;45.75;;;;;14.69;91.73;102056.47;5055999;28;10126;-70
2021/11/06 10:58:50;;;;;;;;;41.00;37.50;;;;;14.79;93.79;102058.09;5055896;28;10644;-70
2021/11/06 11:01:35;;;;;;;;;45.50;39.50;;;;;14.51;91.35;102057.59;5055586;28;10055;-69
2021/11/06 11:04:07;;;;;;;;;45.00;39.75;;;;;14.82;94.05;102054.69;5055513;28;10352;-69
2021/11/06 11:06:48;;;;;;;;;41.00;37.25;;;;;14.44;92.85;102060.81;5055792;28;10357;-68
2021/11/06 11:09:37;;;;;;;;;43.00;37.00;;;;;14.26;92.89;102059.94;5041007;28;11029;-68
2021/11/06 11:12:16;;;;;;;;;36.50;34.50;;;;;14.52;93.95;102054.47;5055574;28;10137;-69
2021/11/06 11:14:55;;;;;;;;;38.50;35.75;;;;;14.31;92.27;102054.22;5055632;28;10269;-70
2021/11/06 11:17:40;;;;;;;;;42.50;37.50;;;;;14.53;94.19;102044.97;5037992;28;10266;-69
2021/11/06 11:20:26;;;;;;;;;41.00;36.00;;;;;14.57;92.19;102045.97;5055230;28;10339;-69
2021/11/06 11:23:18;;;;;;;;;43.00;38.75;;;;;14.61;93.98;102037.78;5055390;28;10116;-70
2021/11/06 11:25:45;;;;;;;;;46.50;39.00;;;;;14.51;92.88;102030.56;5055374;28;10213;-71
2021/11/06 11:28:13;;;;;;;;;40.00;37.00;;;;;14.37;92.96;102043.75;5055470;28;11145;-69
2021/11/06 11:30:42;;;;;;;;;37.75;36.00;;;;;14.71;94.37;102026.31;5055017;28;10318;-69
2021/11/06 11:33:32;;;;;;;;;33.75;33.00;;;;;14.82;94.46;102038.78;5054905;28;10201;-69
2021/11/06 11:36:02;;;;;;;;;38.00;36.00;;;;;14.95;93.09;102036.97;5055051;28;10300;-69
2021/11/06 11:38:30;;;;;;;;;43.00;37.00;;;;;14.88;92.38;102040.28;5054914;28;10166;-69
2021/11/06 11:41:24;;;;;;;;;42.75;37.25;;;;;14.56;91.03;102054.63;5070225;28;10154;-69
2021/11/06 11:44:01;;;;;;;;;41.50;37.25;;;;;14.18;92.35;102049.59;5036882;28;10293;-69
2021/11/06 11:46:44;;;;;;;;;44.25;39.50;;;;;14.55;94.33;102045.47;5037189;28;10216;-69
2021/11/06 11:49:13;;;;;;;;;35.25;34.50;;;;;14.49;92.94;102046.75;5054235;28;11193;-70
2021/11/06 11:51:41;;;;;;;;;39.00;35.50;;;;;14.64;93.88;102035.16;5054296;28;10143;-70
2021/11/06 11:54:10;;;;;;;;;41.75;37.50;;;;;14.57;93.21;102032.06;5054701;28;10197;-69
2021/11/06 11:56:39;;;;;;;;;55.25;45.50;;;;;14.79;94.07;102033.84;5054556;28;10274;-69
2021/11/06 11:59:07;;;;;;;;;54.75;46.25;;;;;15.05;94.27;102017.16;5054977;28;10783;-69
2021/11/06 12:01:36;;;;;;;;;67.25;53.75;;;;;14.82;92.30;102019.28;5054209;28;10571;-69
2021/11/06 12:04:18;;;;;;;;;37.75;35.75;;;;;15.12;92.30;102022.22;5054696;28;11307;-69
2021/11/06 12:06:45;;;;;;;;;40.25;36.00;;;;;15.29;94.53;102011.06;5036842;28;11057;-69
2021/11/06 12:09:20;;;;;;;;;39.25;37.00;;;;;15.36;93.09;102007.75;5020566;28;10193;-69
2021/11/06 12:11:53;;;;;;;;;41.25;38.00;;;;;15.00;90.97;102025.66;5054378;28;10118;-70
2021/11/06 12:14:30;;;;;;;;;43.00;38.50;;;;;15.08;91.76;102037.94;5054657;28;9991;-70
2021/11/06 12:17:05;;;;;;;;;38.75;36.00;;;;;14.59;93.18;102035.31;5054540;28;10035;-69
2021/11/06 12:19:37;;;;;;;;;37.00;35.25;;;;;14.55;93.46;102037.09;5054416;28;9790;-70
2021/11/06 12:22:28;;;;;;;;;38.50;34.50;;;;;14.19;94.47;102040.13;5054492;28;10173;-70
2021/11/06 12:25:15;;;;;;;;;38.25;35.25;;;;;14.35;96.51;102046.88;5054414;28;10290;-70
2021/11/06 12:27:56;;;;;;;;;44.75;37.25;;;;;14.58;94.97;102052.38;5054426;28;10039;-70
2021/11/06 12:30:34;;;;;;;;;37.75;34.50;;;;;15.05;97.47;102044.19;5054015;28;10275;-69
2021/11/06 12:33:04;;;;;;;;;36.00;34.25;;;;;15.32;94.13;102046.59;5053920;28;10146;-69
2021/11/06 12:35:32;;;;;;;;;36.75;33.00;;;;;15.08;93.79;102038.78;5053968;28;9934;-69
2021/11/06 12:38:07;;;;;;;;;39.75;37.00;;;;;15.04;93.48;102034.19;5053780;28;9932;-69
2021/11/06 12:40:53;;;;;;;;;35.25;33.50;;;;;14.45;93.56;102041.03;5036425;28;10136;-69
2021/11/06 12:43:29;;;;;;;;;38.75;36.75;;;;;14.36;95.11;102039.34;5048959;28;11044;-70
2021/11/06 12:46:25;;;;;;;;;32.50;32.25;;;;;14.55;94.12;102027.94;5037377;28;10173;-71